createdAt,value
2023-01-27T00:02:33.824Z,38.30
2023-01-27T00:07:37.040Z,37.00
2023-01-27T00:13:07.116Z,36.90
2023-01-27T00:18:11.557Z,29.50
2023-01-27T00:23:34.963Z,31.80
2023-01-27T00:28:39.386Z,34.00
2023-01-27T00:33:45.886Z,33.70
2023-01-27T00:38:48.148Z,32.90
2023-01-27T00:43:53.291Z,33.70
2023-01-27T00:48:58.228Z,37.20
2023-01-27T00:54:03.068Z,35.50
2023-01-27T00:59:05.446Z,33.90
2023-01-27T01:04:08.100Z,34.50
2023-01-27T01:09:11.115Z,32.50
2023-01-27T01:14:13.831Z,30.90
2023-01-27T01:19:16.539Z,31.30
2023-01-27T01:24:19.757Z,31.80
2023-01-27T01:29:22.181Z,34.20
2023-01-27T01:34:24.633Z,34.20
2023-01-27T01:39:32.431Z,34.70
2023-01-27T01:44:34.656Z,35.40
2023-01-27T01:49:40.720Z,32.20
2023-01-27T01:54:56.885Z,34.50
2023-01-27T02:00:08.017Z,37.00
2023-01-27T02:05:40.677Z,40.40
2023-01-27T02:10:49.786Z,40.90
2023-01-27T02:15:56.102Z,43.50
2023-01-27T02:20:58.827Z,41.30
2023-01-27T02:26:17.312Z,43.10
2023-01-27T02:31:39.919Z,42.00
2023-01-27T02:36:56.507Z,43.30
2023-01-27T02:42:19.602Z,42.00
2023-01-27T02:47:31.045Z,42.50
2023-01-27T02:52:34.027Z,43.60
2023-01-27T02:57:36.470Z,42.70
2023-01-27T03:02:54.286Z,45.50
2023-01-27T03:07:57.023Z,50.90
2023-01-27T03:12:59.748Z,52.00
2023-01-27T03:18:11.604Z,51.00
2023-01-27T03:23:16.881Z,55.50
2023-01-27T03:28:22.773Z,57.40
2023-01-27T03:33:37.151Z,52.30
2023-01-27T03:39:14.173Z,55.70
2023-01-27T03:44:35.011Z,64.30
2023-01-27T03:49:39.384Z,63.00
2023-01-27T03:54:41.547Z,64.80
2023-01-27T03:59:48.048Z,62.80
2023-01-27T04:05:08.780Z,67.30
2023-01-27T04:10:11.862Z,79.80
2023-01-27T04:15:14.469Z,72.60
2023-01-27T04:20:38.066Z,69.10
2023-01-27T04:25:40.514Z,65.10
2023-01-27T04:30:44.060Z,60.40
2023-01-27T04:35:46.610Z,55.60
2023-01-27T04:40:48.826Z,63.00
2023-01-27T04:45:51.202Z,63.40
2023-01-27T04:50:53.910Z,67.60
2023-01-27T04:56:05.984Z,65.40
2023-01-27T05:01:07.980Z,63.10
2023-01-27T05:06:17.242Z,56.90
2023-01-27T05:11:20.200Z,57.00
2023-01-27T05:16:25.356Z,54.20
2023-01-27T05:21:28.495Z,54.50
2023-01-27T05:26:31.238Z,53.70
2023-01-27T05:31:33.527Z,53.80
2023-01-27T05:36:36.122Z,49.80
2023-01-27T05:41:38.252Z,35.90
2023-01-27T05:46:42.462Z,49.10
2023-01-27T05:51:48.303Z,47.80
2023-01-27T05:56:50.328Z,53.00
2023-01-27T06:01:52.742Z,52.40
2023-01-27T06:06:55.424Z,53.10
2023-01-27T06:11:57.707Z,52.70
2023-01-27T06:17:01.106Z,45.50
2023-01-27T06:22:12.464Z,45.80
2023-01-27T06:27:15.325Z,43.20
2023-01-27T06:32:17.464Z,42.00
2023-01-27T06:37:22.586Z,45.80
2023-01-27T06:42:25.448Z,53.80
2023-01-27T06:47:27.748Z,46.50
2023-01-27T06:52:30.435Z,37.50
2023-01-27T06:57:33.019Z,39.90
2023-01-27T07:02:38.222Z,44.70
2023-01-27T07:07:43.481Z,39.30
2023-01-27T07:12:45.459Z,42.20
2023-01-27T07:17:47.963Z,42.60
2023-01-27T07:22:53.416Z,50.30
2023-01-27T07:27:58.431Z,47.80
2023-01-27T07:33:10.784Z,37.00
2023-01-27T07:38:15.664Z,40.00
2023-01-27T07:43:18.166Z,38.90
2023-01-27T07:48:21.742Z,35.90
2023-01-27T07:53:23.840Z,34.20
2023-01-27T07:58:26.971Z,33.90
2023-01-27T08:03:29.396Z,28.30
2023-01-27T08:08:32.752Z,31.30
2023-01-27T08:13:36.193Z,35.30
2023-01-27T08:18:40.320Z,30.60
2023-01-27T08:23:42.888Z,31.20
2023-01-27T08:28:45.080Z,29.30
2023-01-27T08:33:53.285Z,31.90
2023-01-27T08:39:06.687Z,30.40
2023-01-27T08:44:12.184Z,31.10
2023-01-27T08:49:15.172Z,29.90
2023-01-27T08:54:17.812Z,28.70
2023-01-27T08:59:20.439Z,27.00
2023-01-27T09:04:23.196Z,31.10
2023-01-27T09:09:25.133Z,35.70
2023-01-27T09:14:27.619Z,37.10
2023-01-27T09:19:32.883Z,35.40
2023-01-27T09:24:35.330Z,40.90
2023-01-27T09:29:37.306Z,41.00
2023-01-27T09:34:39.775Z,36.00
2023-01-27T09:39:56.231Z,44.40
2023-01-27T09:45:38.705Z,49.30
2023-01-27T09:50:53.408Z,46.30
2023-01-27T09:56:20.875Z,41.00
2023-01-27T10:01:46.917Z,37.40
2023-01-27T10:07:07.410Z,42.30
2023-01-27T10:12:24.369Z,38.20
2023-01-27T10:18:15.598Z,31.10
2023-01-27T10:23:57.834Z,39.30
2023-01-27T10:29:23.283Z,36.00
2023-01-27T10:35:02.860Z,43.70
2023-01-27T10:40:16.316Z,53.00
2023-01-27T10:45:40.436Z,44.60
2023-01-27T10:51:02.026Z,47.10
2023-01-27T10:56:25.814Z,46.10
2023-01-27T11:01:38.672Z,45.70
2023-01-27T11:06:43.949Z,49.90
2023-01-27T11:11:50.139Z,47.40
2023-01-27T11:17:02.936Z,47.50
2023-01-27T11:22:20.055Z,54.70
2023-01-27T11:28:13.761Z,49.70
2023-01-27T11:33:51.761Z,61.80
2023-01-27T11:39:07.398Z,56.00
2023-01-27T11:44:23.257Z,55.60
2023-01-27T11:49:32.614Z,59.10
2023-01-27T11:54:42.157Z,52.80
2023-01-27T11:59:46.815Z,46.10
2023-01-27T12:05:04.076Z,47.70
2023-01-27T12:10:36.244Z,52.00
2023-01-27T12:15:58.973Z,51.20
2023-01-27T12:21:08.517Z,46.70
2023-01-27T12:26:12.233Z,44.30
2023-01-27T12:31:33.553Z,45.10
2023-01-27T12:36:44.495Z,47.40
2023-01-27T12:41:47.132Z,45.20
2023-01-27T12:47:35.593Z,40.10
2023-01-27T12:52:38.063Z,39.00
2023-01-27T12:57:43.735Z,34.30
2023-01-27T13:02:47.229Z,35.60
2023-01-27T13:07:53.192Z,44.50
2023-01-27T13:13:05.474Z,42.90
2023-01-27T13:18:23.796Z,37.30
2023-01-27T13:23:35.134Z,30.30
2023-01-27T13:29:13.347Z,34.20
2023-01-27T13:34:29.831Z,35.20
2023-01-27T13:39:51.926Z,33.90
2023-01-27T13:45:01.403Z,31.00
2023-01-27T13:50:16.682Z,32.30
2023-01-27T13:55:47.958Z,30.50
2023-01-27T14:01:25.483Z,29.80
2023-01-27T14:06:28.014Z,27.60
2023-01-27T14:11:47.573Z,25.40
2023-01-27T14:17:02.838Z,27.10
2023-01-27T14:22:26.033Z,24.70
2023-01-27T14:27:40.189Z,28.30
2023-01-27T14:33:03.033Z,24.50
2023-01-27T14:38:33.037Z,27.40
2023-01-27T14:43:51.983Z,23.40
2023-01-27T14:49:32.687Z,23.20
2023-01-27T14:54:58.926Z,23.70
2023-01-27T15:00:12.817Z,27.30
2023-01-27T15:06:13.722Z,18.50
2023-01-27T15:11:51.711Z,23.50
2023-01-27T15:17:12.769Z,23.60
2023-01-27T15:22:42.992Z,18.30
2023-01-27T15:27:47.388Z,19.80
2023-01-27T15:32:49.625Z,24.70
2023-01-27T15:38:17.980Z,22.40
2023-01-27T15:43:25.532Z,14.50
2023-01-27T15:48:34.358Z,22.00
2023-01-27T15:53:42.352Z,21.10
2023-01-27T15:58:58.308Z,21.30
2023-01-27T16:04:27.665Z,25.00
2023-01-27T16:09:51.998Z,31.10
2023-01-27T16:15:22.926Z,27.30
2023-01-27T16:20:37.886Z,31.20
2023-01-27T16:25:46.565Z,25.40
2023-01-27T16:31:03.511Z,23.50
2023-01-27T16:36:27.245Z,25.30
2023-01-27T16:41:36.217Z,22.00
2023-01-27T16:46:53.376Z,23.50
2023-01-27T16:52:01.673Z,19.10
2023-01-27T16:57:06.649Z,20.80
2023-01-27T17:02:20.378Z,24.80
2023-01-27T17:07:23.411Z,25.30
2023-01-27T17:12:34.731Z,30.60
2023-01-27T17:17:39.193Z,22.00
2023-01-27T17:22:44.479Z,25.20
2023-01-27T17:27:50.252Z,24.70
2023-01-27T17:33:00.639Z,26.60
2023-01-27T17:38:24.315Z,28.30
2023-01-27T17:43:39.347Z,26.50
2023-01-27T17:48:52.582Z,29.70
2023-01-27T17:53:56.778Z,18.20
2023-01-27T17:59:11.877Z,21.40
2023-01-27T18:04:15.589Z,21.40
2023-01-27T18:09:28.510Z,20.50
2023-01-27T18:14:37.089Z,22.70
2023-01-27T18:19:51.276Z,28.20
2023-01-27T18:24:57.474Z,22.00
2023-01-27T18:30:28.485Z,27.60
2023-01-27T18:35:34.984Z,32.60
2023-01-27T18:40:45.907Z,37.90
2023-01-27T18:45:50.608Z,49.50
2023-01-27T18:50:53.205Z,48.70
2023-01-27T18:55:55.723Z,46.80
2023-01-27T19:01:01.022Z,41.90
2023-01-27T19:06:03.919Z,30.00
2023-01-27T19:11:14.248Z,33.80
2023-01-27T19:16:19.695Z,27.60
2023-01-27T19:21:22.719Z,30.20
2023-01-27T19:26:27.551Z,33.30
2023-01-27T19:31:30.238Z,32.20
2023-01-27T19:36:42.447Z,31.70
2023-01-27T19:41:48.712Z,32.30
2023-01-27T19:46:59.971Z,28.60
2023-01-27T19:52:05.799Z,25.50
2023-01-27T19:57:15.908Z,21.70
2023-01-27T20:02:21.331Z,19.60
2023-01-27T20:07:26.093Z,20.50
2023-01-27T20:12:29.103Z,22.30
2023-01-27T20:17:32.785Z,21.10
2023-01-27T20:22:36.846Z,22.30
2023-01-27T20:27:39.519Z,23.30
2023-01-27T20:32:42.419Z,24.50
2023-01-27T20:37:48.656Z,26.70
2023-01-27T20:42:52.176Z,27.80
2023-01-27T20:47:54.390Z,28.10
2023-01-27T20:52:57.296Z,25.80
2023-01-27T20:58:02.444Z,27.90
2023-01-27T21:03:05.110Z,25.20
2023-01-27T21:08:07.353Z,31.10
2023-01-27T21:13:12.172Z,32.10
2023-01-27T21:23:28.075Z,28.50
2023-01-27T21:28:31.948Z,28.90
2023-01-27T21:33:36.279Z,28.90
2023-01-27T21:38:40.058Z,30.60
2023-01-27T21:44:01.204Z,35.10
2023-01-27T21:49:04.025Z,34.80
2023-01-27T21:54:10.484Z,36.40
2023-01-27T21:59:13.043Z,28.40
2023-01-27T22:04:18.800Z,25.20
2023-01-27T22:09:24.049Z,25.80
2023-01-27T22:14:31.648Z,32.90
2023-01-27T22:19:39.212Z,38.00
2023-01-27T22:24:42.237Z,39.50
2023-01-27T22:29:44.882Z,38.20
2023-01-27T22:34:50.815Z,33.50
2023-01-27T22:39:55.875Z,32.80
2023-01-27T22:45:01.811Z,30.00
2023-01-27T22:50:08.802Z,31.60
2023-01-27T22:55:13.228Z,42.20
2023-01-27T23:00:21.004Z,44.70
2023-01-27T23:05:26.700Z,51.00
2023-01-27T23:10:29.264Z,47.00
2023-01-27T23:15:31.586Z,45.50
2023-01-27T23:20:34.951Z,39.80
2023-01-27T23:25:45.175Z,37.20
2023-01-27T23:30:53.848Z,42.70
2023-01-27T23:35:57.620Z,42.00
2023-01-27T23:41:04.756Z,44.40
2023-01-27T23:46:11.457Z,44.10
2023-01-27T23:51:20.113Z,43.40
2023-01-27T23:56:22.694Z,43.70
